Time;durP1;ratioP1;P1;durP2;ratioP2;P2;SDS_P1;SDS_P2;PMS_P1;PMS_P2;Temp;Humidity;BMP_temperature;BMP_pressure;BME280_temperature;BME280_humidity;BME280_pressure;Samples;Min_cycle;Max_cycle;Signal;HPM_P1;HPM_P2
2022/04/10 04:04:43;;;;;;;7.23;4.40;;;1.00;99.90;;;;;;5495532;23;21038;-78
2022/04/10 04:07:12;;;;;;;7.00;4.43;;;0.90;99.90;;;;;;4893708;29;20548;-77
2022/04/10 04:09:41;;;;;;;7.73;5.13;;;0.90;99.90;;;;;;4898156;29;20494;-78
2022/04/10 04:12:10;;;;;;;11.23;4.70;;;0.90;99.90;;;;;;4897464;29;20552;-76
2022/04/10 04:14:38;;;;;;;6.70;4.40;;;0.80;99.90;;;;;;4898254;29;21094;-75
2022/04/10 04:17:06;;;;;;;6.67;4.33;;;0.80;99.90;;;;;;4898294;29;20489;-77
2022/04/10 04:19:34;;;;;;;10.40;4.57;;;0.80;99.90;;;;;;4897551;29;20489;-78
2022/04/10 04:22:04;;;;;;;7.77;4.63;;;0.80;99.90;;;;;;4898248;29;20454;-75
2022/04/10 04:24:33;;;;;;;7.93;5.10;;;0.80;99.90;;;;;;4898161;29;20490;-76
2022/04/10 04:27:01;;;;;;;7.57;4.83;;;0.80;99.90;;;;;;4892179;29;20541;-74
2022/04/10 04:29:29;;;;;;;7.13;5.10;;;0.80;99.90;;;;;;4897253;29;20572;-73
2022/04/10 04:31:58;;;;;;;6.53;4.67;;;0.70;99.90;;;;;;4897930;29;20966;-76
2022/04/10 04:34:26;;;;;;;6.47;4.90;;;0.70;99.90;;;;;;4898363;29;20454;-78
2022/04/10 04:36:54;;;;;;;7.50;5.30;;;0.70;99.90;;;;;;4898297;29;20987;-75
2022/04/10 04:39:24;;;;;;;9.00;5.60;;;0.70;99.90;;;;;;4897480;29;20943;-77
2022/04/10 04:41:52;;;;;;;10.07;5.50;;;0.70;99.90;;;;;;4896974;29;20541;-75
2022/04/10 04:44:20;;;;;;;6.87;5.20;;;0.70;99.90;;;;;;4894593;29;20462;-77
2022/04/10 04:46:48;;;;;;;9.97;5.37;;;0.70;99.90;;;;;;4897004;29;20454;-75
2022/04/10 04:49:16;;;;;;;7.33;5.00;;;0.70;99.90;;;;;;4897231;29;20992;-75
2022/04/10 04:51:45;;;;;;;10.47;5.80;;;0.70;99.90;;;;;;4897471;29;20959;-76
2022/04/10 04:54:13;;;;;;;9.03;5.60;;;0.70;99.90;;;;;;4897781;29;20473;-77
2022/04/10 04:56:42;;;;;;;9.17;5.47;;;0.70;99.90;;;;;;4897055;29;20943;-77
2022/04/10 04:59:12;;;;;;;8.57;4.93;;;0.70;99.90;;;;;;4897061;29;20580;-76
2022/04/10 05:01:41;;;;;;;7.07;5.10;;;0.70;99.90;;;;;;4897328;29;20489;-79
2022/04/10 05:04:09;;;;;;;8.67;4.93;;;0.90;99.90;;;;;;4896193;29;20494;-78
2022/04/10 05:06:38;;;;;;;8.63;5.37;;;0.90;99.90;;;;;;4896990;29;20462;-78
2022/04/10 05:09:07;;;;;;;7.63;4.77;;;1.00;99.90;;;;;;4897139;29;20588;-74
2022/04/10 05:11:35;;;;;;;6.10;5.10;;;1.10;99.90;;;;;;4897240;29;20481;-76
2022/04/10 05:14:04;;;;;;;6.63;4.40;;;1.30;99.90;;;;;;4896908;29;20831;-74
2022/04/10 05:16:32;;;;;;;7.83;5.33;;;1.30;99.90;;;;;;4897294;29;20461;-75
2022/04/10 05:19:00;;;;;;;8.90;5.60;;;1.50;99.90;;;;;;4896343;29;20450;-74
2022/04/10 05:21:29;;;;;;;8.83;5.37;;;1.60;99.90;;;;;;4896318;29;20457;-78
2022/04/10 05:23:57;;;;;;;8.83;5.43;;;1.70;99.90;;;;;;4896386;29;20500;-77
2022/04/10 05:26:25;;;;;;;6.93;4.50;;;1.80;99.90;;;;;;4896765;29;20526;-73
2022/04/10 05:28:54;;;;;;;6.50;4.77;;;1.80;99.90;;;;;;4892383;29;20600;-78
2022/04/10 05:31:31;;;;;;;5.90;4.30;;;1.90;99.90;;;;;;4894509;29;20530;-75
2022/04/10 05:34:02;;;;;;;7.47;4.90;;;2.00;99.90;;;;;;4902755;29;20454;-74
2022/04/10 05:36:31;;;;;;;6.60;4.53;;;2.10;99.90;;;;;;4902427;29;20510;-75
2022/04/10 05:38:59;;;;;;;7.43;4.90;;;2.20;99.90;;;;;;4902653;29;20473;-76
2022/04/10 05:41:27;;;;;;;7.47;4.80;;;2.20;99.90;;;;;;4900100;29;20524;-77
2022/04/10 05:43:55;;;;;;;5.70;4.60;;;2.20;99.90;;;;;;4897269;29;20446;-76
2022/04/10 05:46:25;;;;;;;6.40;4.63;;;2.30;99.90;;;;;;4896502;29;20482;-77
2022/04/10 05:48:55;;;;;;;8.77;5.00;;;2.30;99.90;;;;;;4895858;29;20497;-75
2022/04/10 05:51:23;;;;;;;8.07;4.80;;;2.30;99.90;;;;;;4896748;29;21003;-76
2022/04/10 05:53:51;;;;;;;7.13;4.80;;;2.40;99.90;;;;;;4896008;29;20222;-77
2022/04/10 05:56:20;;;;;;;7.33;4.40;;;2.40;99.90;;;;;;4897767;29;20473;-74
2022/04/10 05:58:49;;;;;;;7.03;5.00;;;2.40;99.90;;;;;;4896104;29;20292;-76
2022/04/10 06:01:19;;;;;;;6.43;4.70;;;2.40;99.90;;;;;;4896750;29;21113;-76
2022/04/10 06:03:48;;;;;;;7.10;4.83;;;2.50;99.90;;;;;;4885625;29;20238;-76
2022/04/10 06:06:18;;;;;;;8.70;4.90;;;2.50;99.90;;;;;;4889934;29;20313;-78
2022/04/10 06:08:46;;;;;;;6.90;4.63;;;2.60;99.90;;;;;;4896100;29;20198;-80
2022/04/10 06:11:15;;;;;;;7.13;4.77;;;2.70;99.90;;;;;;4895719;29;20316;-78
2022/04/10 06:13:43;;;;;;;7.37;4.70;;;2.80;99.90;;;;;;4885558;29;20728;-79
2022/04/10 06:16:12;;;;;;;6.50;4.53;;;3.00;99.90;;;;;;4878269;29;20206;-80
2022/04/10 06:18:40;;;;;;;6.90;4.50;;;2.90;99.90;;;;;;4883366;29;20462;-77
2022/04/10 06:21:08;;;;;;;5.97;4.47;;;3.00;99.90;;;;;;4896263;29;20237;-77
2022/04/10 06:23:38;;;;;;;9.30;5.20;;;3.00;99.90;;;;;;4881249;29;20206;-77
2022/04/10 06:26:06;;;;;;;6.20;4.50;;;3.00;99.90;;;;;;4878262;29;20207;-77
2022/04/10 06:28:34;;;;;;;7.73;5.03;;;3.00;99.90;;;;;;4887454;29;20246;-80
2022/04/10 06:31:03;;;;;;;9.00;4.67;;;3.10;99.90;;;;;;4910889;29;20253;-78
2022/04/10 06:33:31;;;;;;;9.00;5.00;;;3.10;99.90;;;;;;4910559;29;20228;-77
2022/04/10 06:36:01;;;;;;;7.73;5.23;;;3.20;99.90;;;;;;4891815;29;20297;-77
2022/04/10 06:38:29;;;;;;;8.87;4.60;;;3.40;99.90;;;;;;4896429;29;20201;-76
2022/04/10 06:40:59;;;;;;;7.63;4.80;;;3.40;99.90;;;;;;4894623;29;20233;-78
2022/04/10 06:43:27;;;;;;;7.40;4.60;;;3.60;99.90;;;;;;4894441;29;20206;-78
2022/04/10 06:45:58;;;;;;;7.13;4.50;;;3.60;99.90;;;;;;4894248;29;20239;-78
2022/04/10 06:48:27;;;;;;;7.83;5.10;;;3.80;99.90;;;;;;4894899;29;20210;-77
2022/04/10 06:50:55;;;;;;;7.30;4.70;;;3.90;99.90;;;;;;4896218;29;20261;-77
2022/04/10 06:53:24;;;;;;;9.77;6.47;;;4.00;99.90;;;;;;4900549;29;20212;-78
2022/04/10 06:55:52;;;;;;;6.93;5.17;;;4.10;99.90;;;;;;4919392;29;20220;-77
2022/04/10 06:58:23;;;;;;;8.30;4.43;;;4.20;99.90;;;;;;4901099;29;20207;-77
2022/04/10 07:00:52;;;;;;;7.33;4.70;;;4.40;99.90;;;;;;4899826;29;20300;-80
2022/04/10 07:03:21;;;;;;;7.77;4.60;;;4.50;99.90;;;;;;4899547;29;20213;-78
2022/04/10 07:05:49;;;;;;;6.27;4.10;;;4.80;99.90;;;;;;4885938;29;20290;-79
2022/04/10 07:08:17;;;;;;;5.67;4.10;;;5.00;99.90;;;;;;4881046;29;20203;-79
2022/04/10 07:10:45;;;;;;;6.37;4.00;;;5.00;99.90;;;;;;4880278;29;20666;-78
2022/04/10 07:13:18;;;;;;;4.40;3.77;;;5.20;99.90;;;;;;4884140;29;20631;-76
2022/04/10 07:15:52;;;;;;;6.40;4.13;;;5.90;99.90;;;;;;4898869;29;20292;-77
2022/04/10 07:18:21;;;;;;;6.10;3.87;;;6.60;99.90;;;;;;4897580;29;20288;-77
2022/04/10 07:20:49;;;;;;;5.77;3.60;;;7.00;99.90;;;;;;4898759;29;20198;-78
2022/04/10 07:26:19;;;;;;;5.90;4.00;;;7.80;99.90;;;;;;4836753;29;20246;-75
2022/04/10 07:28:48;;;;;;;5.70;3.70;;;7.60;99.90;;;;;;4881764;29;20296;-77
2022/04/10 07:31:18;;;;;;;5.53;3.67;;;8.10;99.90;;;;;;4897555;29;20313;-75
2022/04/10 07:33:46;;;;;;;5.60;4.20;;;8.50;99.90;;;;;;4896825;29;20269;-76
2022/04/10 07:36:15;;;;;;;6.50;4.17;;;8.30;99.90;;;;;;4897589;29;20664;-78
2022/04/10 07:38:42;;;;;;;5.23;4.23;;;7.80;99.90;;;;;;4897525;29;20245;-78
2022/04/10 07:41:11;;;;;;;7.83;4.30;;;7.60;99.90;;;;;;4896900;29;20680;-77
2022/04/10 07:43:42;;;;;;;5.80;4.03;;;8.00;99.90;;;;;;4898046;29;20213;-78
2022/04/10 07:48:59;;;;;;;5.13;3.30;;;9.80;99.90;;;;;;4897457;29;20654;-76
2022/04/10 07:51:27;;;;;;;4.90;3.40;;;10.40;99.90;;;;;;4897924;29;20289;-74
2022/04/10 07:53:57;;;;;;;5.33;3.50;;;10.70;99.90;;;;;;4898472;29;20219;-77
2022/04/10 07:56:25;;;;;;;4.23;3.50;;;11.20;98.80;;;;;;4898738;29;20218;-77
2022/04/10 07:58:57;;;;;;;6.60;3.60;;;11.00;99.40;;;;;;4881256;29;20581;-81
2022/04/10 08:01:25;;;;;;;4.53;3.53;;;11.20;98.10;;;;;;4880539;29;20214;-79
2022/04/10 08:03:54;;;;;;;6.33;3.73;;;10.90;98.90;;;;;;4880559;29;20238;-78
2022/04/10 08:06:26;;;;;;;5.57;3.77;;;10.10;97.70;;;;;;4880631;29;20296;-76
2022/04/10 08:08:55;;;;;;;7.90;4.27;;;9.50;98.30;;;;;;4890464;29;20289;-76
2022/04/10 08:11:23;;;;;;;7.07;3.90;;;8.70;99.80;;;;;;4899075;29;20237;-78
2022/04/10 08:13:52;;;;;;;7.00;4.13;;;8.20;99.90;;;;;;4898593;29;20218;-79
2022/04/10 08:16:20;;;;;;;6.83;4.40;;;7.60;99.90;;;;;;4898710;29;20767;-79
2022/04/10 08:18:48;;;;;;;7.10;3.77;;;7.40;99.90;;;;;;4898577;29;20257;-78
2022/04/10 08:21:19;;;;;;;5.53;3.77;;;7.20;99.90;;;;;;4898676;29;20277;-75
2022/04/10 08:23:49;;;;;;;5.50;3.70;;;6.90;99.90;;;;;;4898152;29;20304;-73
2022/04/10 08:26:17;;;;;;;5.73;3.90;;;6.70;99.90;;;;;;4897733;29;20241;-73
2022/04/10 08:28:45;;;;;;;6.63;3.90;;;6.50;99.90;;;;;;4898791;29;20213;-73
2022/04/10 08:31:13;;;;;;;5.50;3.80;;;6.30;99.90;;;;;;4899687;29;20240;-73
2022/04/10 08:33:42;;;;;;;5.73;3.60;;;6.20;99.90;;;;;;4894838;29;20686;-77
2022/04/10 08:36:10;;;;;;;5.53;3.87;;;6.00;99.90;;;;;;4891412;29;20238;-80
2022/04/10 08:38:38;;;;;;;7.63;4.50;;;6.00;99.90;;;;;;4898288;29;20213;-78
2022/04/10 08:41:09;;;;;;;6.97;4.20;;;6.10;99.90;;;;;;4898322;29;20649;-76
2022/04/10 08:43:37;;;;;;;8.63;4.47;;;6.20;99.90;;;;;;4898652;29;20245;-79
2022/04/10 08:46:08;;;;;;;7.50;5.03;;;6.80;99.90;;;;;;4898203;29;20223;-78
2022/04/10 08:48:37;;;;;;;4.50;3.80;;;7.10;99.90;;;;;;4897109;29;20217;-78
2022/04/10 08:51:10;;;;;;;7.60;3.97;;;8.30;99.90;;;;;;4896813;29;20218;-78
2022/04/10 08:53:39;;;;;;;6.83;3.90;;;8.70;99.90;;;;;;4897337;29;20305;-78
2022/04/10 08:56:12;;;;;;;6.20;3.50;;;10.00;98.60;;;;;;4897495;29;20252;-75
2022/04/10 08:58:43;;;;;;;6.10;3.00;;;11.70;95.70;;;;;;4897266;29;20209;-74
2022/04/10 09:01:12;;;;;;;4.33;2.80;;;13.10;92.00;;;;;;4897361;29;20236;-73
2022/04/10 09:03:40;;;;;;;4.77;2.90;;;14.20;90.20;;;;;;4881086;29;20645;-74
2022/04/10 09:06:11;;;;;;;4.37;2.30;;;15.40;81.40;;;;;;4883721;29;20202;-75
2022/04/10 09:08:40;;;;;;;3.73;2.67;;;16.20;82.80;;;;;;4882443;29;20281;-76
2022/04/10 09:11:09;;;;;;;4.27;2.60;;;16.90;75.00;;;;;;4883814;29;20327;-77
2022/04/10 09:13:40;;;;;;;4.03;3.07;;;15.70;71.70;;;;;;4900021;29;20300;-73
2022/04/10 09:16:14;;;;;;;3.60;2.53;;;15.50;72.60;;;;;;4898792;29;20221;-77
2022/04/10 09:18:54;;;;;;;5.23;3.00;;;15.50;72.80;;;;;;4900119;29;20217;-75
2022/04/10 09:21:28;;;;;;;4.20;2.60;;;15.30;73.50;;;;;;4898767;29;20281;-78
2022/04/10 09:24:01;;;;;;;6.17;2.90;;;13.80;72.20;;;;;;4898346;29;20573;-77
2022/04/10 09:26:50;;;;;;;4.00;2.80;;;13.50;79.30;;;;;;4897445;29;20228;-78
2022/04/10 09:29:23;;;;;;;4.53;2.70;;;12.90;77.20;;;;;;4897875;29;20552;-76
2022/04/10 09:31:54;;;;;;;5.50;2.90;;;13.10;79.90;;;;;;4897369;29;20313;-78
2022/04/10 09:34:28;;;;;;;5.87;2.97;;;14.30;78.10;;;;;;4886720;29;20217;-75
2022/04/10 09:37:19;;;;;;;4.27;2.50;;;15.30;77.20;;;;;;4878154;29;20210;-78
2022/04/10 09:39:52;;;;;;;3.87;2.50;;;15.00;72.30;;;;;;4877971;29;20201;-77
2022/04/10 09:42:31;;;;;;;5.10;2.47;;;13.90;70.60;;;;;;4884559;29;20296;-76
2022/04/10 09:45:29;;;;;;;6.87;3.20;;;11.80;77.90;;;;;;4897026;29;20549;-76
2022/04/10 09:47:58;;;;;;;6.60;3.70;;;10.40;83.30;;;;;;4896931;29;20209;-78
2022/04/10 09:50:31;;;;;;;3.70;2.77;;;10.70;85.90;;;;;;4896014;29;20308;-79
2022/04/10 09:53:07;;;;;;;5.17;2.80;;;12.20;87.80;;;;;;4896423;29;20273;-78
2022/04/10 09:55:38;;;;;;;3.87;2.63;;;13.10;77.70;;;;;;4896913;29;20678;-78
2022/04/10 09:58:09;;;;;;;5.30;3.03;;;12.70;77.30;;;;;;4897488;29;20269;-79
2022/04/10 10:00:41;;;;;;;6.57;3.10;;;12.00;79.10;;;;;;4898250;29;20284;-78
2022/04/10 10:03:11;;;;;;;5.17;2.70;;;11.10;80.80;;;;;;4897553;29;20613;-77
2022/04/10 10:05:39;;;;;;;5.27;2.67;;;10.50;84.30;;;;;;4895579;29;20237;-80
2022/04/10 10:08:10;;;;;;;5.97;2.63;;;9.90;86.60;;;;;;4876906;29;20249;-81
2022/04/10 10:10:41;;;;;;;3.50;2.70;;;10.60;90.90;;;;;;4877769;29;20214;-77
2022/04/10 10:13:12;;;;;;;6.10;3.37;;;11.30;88.90;;;;;;4878604;29;20234;-73
2022/04/10 10:15:46;;;;;;;5.33;2.80;;;11.20;88.70;;;;;;4878560;29;20190;-77
2022/04/10 10:18:16;;;;;;;4.97;2.73;;;10.40;88.30;;;;;;4884749;29;20273;-74
2022/04/10 10:20:44;;;;;;;4.77;2.90;;;10.00;90.30;;;;;;4897622;29;20219;-75
2022/04/10 10:23:14;;;;;;;3.10;2.40;;;9.30;91.20;;;;;;4896470;29;20209;-74
2022/04/10 10:25:50;;;;;;;3.60;2.70;;;8.10;94.80;;;;;;4896659;29;20213;-76
2022/04/10 10:28:55;;;;;;;3.13;2.33;;;6.80;99.90;;;;;;4896777;29;20209;-75
2022/04/10 10:31:48;;;;;;;4.07;2.70;;;6.10;99.90;;;;;;4900011;29;20285;-76
2022/04/10 10:34:37;;;;;;;4.63;3.00;;;5.30;99.90;;;;;;4899637;29;20238;-76
2022/04/10 10:37:05;;;;;;;4.77;3.37;;;5.00;99.90;;;;;;4881856;29;20239;-77
2022/04/10 10:39:45;;;;;;;5.67;3.40;;;4.90;99.90;;;;;;4881172;29;20242;-77
2022/04/10 10:42:14;;;;;;;5.47;3.23;;;5.10;99.90;;;;;;4880689;29;20218;-77
2022/04/10 10:44:48;;;;;;;5.40;2.90;;;5.50;99.90;;;;;;4886334;29;20671;-78
2022/04/10 10:47:21;;;;;;;4.37;2.67;;;6.20;99.90;;;;;;4899408;29;20292;-77
2022/04/10 10:49:54;;;;;;;3.20;2.20;;;8.00;99.90;;;;;;4892103;29;20274;-79
2022/04/10 10:52:24;;;;;;;5.00;2.60;;;10.20;99.90;;;;;;4880912;29;20214;-76
2022/04/10 10:54:54;;;;;;;4.03;2.47;;;11.60;99.90;;;;;;4881151;29;20245;-77
2022/04/10 10:57:24;;;;;;;3.50;2.20;;;12.80;97.50;;;;;;4892392;29;20231;-75
2022/04/10 10:59:52;;;;;;;3.03;2.27;;;13.70;96.60;;;;;;4899394;29;20237;-76
2022/04/10 11:02:26;;;;;;;3.93;2.60;;;14.30;98.10;;;;;;4899649;29;20621;-76
2022/04/10 11:05:32;;;;;;;4.30;2.40;;;13.90;92.20;;;;;;4899392;29;20592;-75
2022/04/10 11:08:03;;;;;;;6.20;2.80;;;12.60;92.00;;;;;;4899464;29;20198;-78
2022/04/10 11:10:35;;;;;;;3.33;2.60;;;12.80;93.30;;;;;;4880575;29;20630;-75
2022/04/10 11:13:05;;;;;;;3.70;2.20;;;13.30;92.50;;;;;;4881122;29;20222;-75
2022/04/10 11:15:45;;;;;;;3.70;2.30;;;14.10;92.50;;;;;;4880870;29;20763;-75
2022/04/10 11:18:35;;;;;;;4.57;2.47;;;14.70;93.10;;;;;;4880817;29;20217;-74
2022/04/10 11:21:14;;;;;;;4.07;2.40;;;14.60;83.90;;;;;;4886537;29;20243;-77
2022/04/10 11:23:53;;;;;;;5.67;2.63;;;13.50;87.30;;;;;;4899530;29;20293;-77
2022/04/10 11:26:22;;;;;;;5.07;2.60;;;12.30;87.30;;;;;;4899947;29;20209;-76
2022/04/10 11:29:03;;;;;;;3.43;2.13;;;11.10;91.80;;;;;;4899927;29;20301;-76
2022/04/10 11:31:34;;;;;;;4.07;2.53;;;10.80;91.20;;;;;;4898967;29;20213;-77
2022/04/10 11:34:11;;;;;;;3.93;2.30;;;11.10;93.10;;;;;;4892414;29;20223;-78
2022/04/10 11:36:54;;;;;;;5.77;2.63;;;11.30;90.90;;;;;;4880384;29;20307;-78
2022/04/10 11:39:30;;;;;;;3.77;2.70;;;11.20;88.60;;;;;;4880140;29;20292;-78
2022/04/10 11:42:00;;;;;;;4.80;2.37;;;10.80;89.30;;;;;;4880319;29;20226;-75
2022/04/10 11:44:31;;;;;;;4.03;2.43;;;10.30;88.20;;;;;;4880680;29;20206;-75
2022/04/10 11:47:01;;;;;;;2.80;2.20;;;9.90;90.70;;;;;;4899728;29;20214;-75
2022/04/10 11:49:30;;;;;;;4.13;2.70;;;9.70;90.90;;;;;;4885663;29;20273;-76
2022/04/10 11:52:03;;;;;;;4.47;2.87;;;10.20;90.50;;;;;;4883445;29;20676;-75
2022/04/10 11:54:33;;;;;;;5.57;2.30;;;10.10;90.00;;;;;;4879781;29;20696;-77
2022/04/10 11:57:06;;;;;;;4.30;2.40;;;9.80;90.90;;;;;;4883389;29;20210;-79
2022/04/10 11:59:36;;;;;;;3.67;2.20;;;9.50;92.20;;;;;;4898361;29;20194;-76
2022/04/10 12:02:06;;;;;;;5.67;2.60;;;9.10;94.10;;;;;;4898192;29;20549;-76
2022/04/10 12:04:36;;;;;;;3.70;2.57;;;8.80;95.30;;;;;;4897918;29;20320;-76
2022/04/10 12:07:13;;;;;;;6.27;2.83;;;8.50;96.00;;;;;;4898470;29;20273;-76
2022/04/10 12:09:43;;;;;;;5.53;2.90;;;8.40;95.50;;;;;;4898665;29;20219;-76
2022/04/10 12:12:11;;;;;;;5.07;2.93;;;8.30;96.30;;;;;;4898368;29;20318;-78
2022/04/10 12:14:40;;;;;;;3.17;2.23;;;8.40;98.00;;;;;;4898321;29;20324;-73
2022/04/10 12:17:11;;;;;;;5.97;2.33;;;8.40;95.60;;;;;;4897594;29;20305;-74
2022/04/10 12:19:41;;;;;;;4.50;2.43;;;8.50;96.80;;;;;;4898144;29;20304;-77
2022/04/10 12:22:10;;;;;;;5.00;2.60;;;8.60;95.20;;;;;;4897773;29;20643;-77
2022/04/10 12:24:44;;;;;;;4.47;2.20;;;8.70;95.00;;;;;;4898019;29;20631;-77
2022/04/10 12:27:14;;;;;;;4.87;2.50;;;8.90;94.40;;;;;;4897845;29;20587;-76
2022/04/10 12:29:42;;;;;;;4.03;2.13;;;8.80;94.80;;;;;;4897176;29;20213;-78
2022/04/10 12:32:11;;;;;;;6.10;2.30;;;9.00;94.00;;;;;;4891475;29;20737;-77
2022/04/10 12:34:43;;;;;;;4.80;2.50;;;9.10;93.00;;;;;;4892546;29;20257;-78
2022/04/10 12:37:13;;;;;;;2.27;2.00;;;9.30;92.60;;;;;;4897129;29;20724;-74
2022/04/10 12:39:45;;;;;;;4.10;2.40;;;9.40;95.10;;;;;;4893554;29;20769;-74
2022/04/10 12:42:19;;;;;;;3.63;2.00;;;9.50;93.70;;;;;;4897698;29;20237;-75
2022/04/10 12:44:56;;;;;;;2.93;2.17;;;9.50;92.70;;;;;;4909973;29;20296;-73
2022/04/10 12:47:45;;;;;;;4.40;2.47;;;9.70;93.10;;;;;;4897488;29;20229;-74
2022/04/10 12:50:19;;;;;;;3.10;2.13;;;10.00;93.70;;;;;;4878642;29;20246;-76
2022/04/10 12:52:48;;;;;;;2.50;1.90;;;10.50;92.90;;;;;;4894130;29;20201;-78
2022/04/10 12:55:21;;;;;;;3.00;1.83;;;11.00;88.80;;;;;;4897161;29;20249;-76
2022/04/10 12:58:00;;;;;;;3.33;2.00;;;11.30;88.30;;;;;;4899386;29;20240;-76
2022/04/10 13:00:32;;;;;;;4.07;2.40;;;11.60;91.00;;;;;;4915915;29;20249;-76
2022/04/10 13:03:19;;;;;;;3.13;2.30;;;11.60;93.20;;;;;;4918968;29;20508;-77
2022/04/10 13:06:02;;;;;;;4.17;2.50;;;11.40;94.10;;;;;;4898761;29;20237;-75
2022/04/10 13:08:36;;;;;;;3.53;2.30;;;10.50;95.00;;;;;;4893959;29;20225;-77
2022/04/10 13:11:12;;;;;;;3.73;2.30;;;10.60;96.10;;;;;;4895844;29;20249;-75
2022/04/10 13:14:00;;;;;;;5.17;2.70;;;11.20;95.90;;;;;;4894822;29;20584;-75
2022/04/10 13:16:29;;;;;;;4.63;2.57;;;11.10;97.00;;;;;;4896825;29;20205;-77
2022/04/10 13:19:02;;;;;;;3.83;2.40;;;11.10;95.10;;;;;;4896811;29;20269;-78
2022/04/10 13:21:34;;;;;;;4.10;2.53;;;11.40;96.60;;;;;;4896995;29;20209;-79
2022/04/10 13:24:02;;;;;;;4.40;2.40;;;11.20;96.60;;;;;;4897646;29;20232;-77
2022/04/10 13:26:32;;;;;;;3.93;2.50;;;10.80;95.60;;;;;;4897708;29;20293;-76
2022/04/10 13:29:02;;;;;;;3.47;2.40;;;10.10;96.30;;;;;;4896648;29;20236;-75
2022/04/10 13:31:30;;;;;;;6.83;3.87;;;10.30;94.90;;;;;;4896423;29;20272;-78
2022/04/10 13:33:59;;;;;;;3.20;2.20;;;10.40;92.90;;;;;;4898277;29;20813;-76
2022/04/10 13:36:27;;;;;;;4.27;3.00;;;10.70;93.30;;;;;;4899429;29;20288;-76
2022/04/10 13:38:56;;;;;;;7.03;4.30;;;11.10;92.40;;;;;;4880044;29;20274;-76
2022/04/10 13:41:26;;;;;;;4.47;2.33;;;11.30;90.60;;;;;;4880124;29;20210;-77
2022/04/10 13:43:55;;;;;;;4.03;2.40;;;11.30;90.10;;;;;;4883952;29;20210;-74
2022/04/10 13:46:23;;;;;;;2.33;1.97;;;11.10;88.80;;;;;;4901670;29;20348;-74
2022/04/10 13:48:51;;;;;;;3.57;1.87;;;10.60;89.60;;;;;;4902431;29;20197;-73
2022/04/10 13:51:23;;;;;;;3.17;2.20;;;10.00;91.70;;;;;;4896429;29;20246;-72
2022/04/10 13:53:53;;;;;;;7.13;3.87;;;9.50;92.40;;;;;;4898615;29;20308;-75
2022/04/10 13:56:23;;;;;;;4.23;2.90;;;9.00;93.40;;;;;;4896055;29;20640;-77
2022/04/10 13:58:51;;;;;;;4.57;3.20;;;8.70;94.40;;;;;;4896406;29;20643;-75
2022/04/10 14:01:19;;;;;;;4.77;2.60;;;8.40;95.00;;;;;;4896277;29;20217;-76
2022/04/10 14:03:48;;;;;;;5.03;2.80;;;7.90;97.00;;;;;;4898688;29;20338;-75
2022/04/10 14:06:16;;;;;;;4.87;3.13;;;7.70;99.90;;;;;;4900179;29;20304;-77
2022/04/10 14:08:45;;;;;;;4.43;2.70;;;7.70;99.90;;;;;;4895291;29;20293;-75
2022/04/10 14:11:22;;;;;;;3.70;3.30;;;7.10;99.90;;;;;;4893821;29;20205;-74
2022/04/10 14:13:50;;;;;;;5.77;3.40;;;7.10;99.90;;;;;;4887669;29;20316;-73
2022/04/10 14:16:20;;;;;;;5.23;3.60;;;7.10;99.90;;;;;;4880813;29;20214;-76
2022/04/10 14:18:51;;;;;;;6.53;3.60;;;6.80;99.90;;;;;;4888799;29;20558;-73
2022/04/10 14:21:19;;;;;;;5.63;3.87;;;6.70;99.90;;;;;;4887020;29;20245;-77
2022/04/10 14:23:47;;;;;;;5.33;3.80;;;6.70;99.90;;;;;;4890395;29;20221;-75
2022/04/10 14:26:16;;;;;;;4.97;4.07;;;7.00;99.90;;;;;;4882984;29;20214;-76
2022/04/10 14:28:46;;;;;;;4.97;3.70;;;7.30;99.90;;;;;;4882945;29;20559;-77
2022/04/10 14:31:14;;;;;;;4.97;3.87;;;7.60;99.90;;;;;;4890740;29;20233;-77
2022/04/10 14:33:42;;;;;;;4.80;3.10;;;7.80;99.90;;;;;;4887015;29;20305;-75
2022/04/10 14:36:10;;;;;;;5.07;3.30;;;8.10;99.90;;;;;;4883609;29;20624;-77
2022/04/10 14:38:38;;;;;;;4.73;3.27;;;8.20;99.90;;;;;;4887587;29;20245;-72
2022/04/10 14:41:08;;;;;;;4.43;3.17;;;8.40;99.90;;;;;;4887620;29;20776;-78
2022/04/10 14:43:38;;;;;;;3.73;3.03;;;8.60;99.90;;;;;;4884523;29;20213;-75
2022/04/10 14:46:08;;;;;;;4.20;3.10;;;8.60;99.90;;;;;;4899682;29;20213;-79
2022/04/10 14:48:36;;;;;;;5.57;3.20;;;8.90;99.90;;;;;;4901417;29;20220;-74
2022/04/10 14:51:04;;;;;;;5.63;3.20;;;9.00;99.90;;;;;;4899636;29;20296;-73
2022/04/10 14:53:33;;;;;;;4.90;3.00;;;9.10;99.90;;;;;;4899044;29;20241;-72
2022/04/10 14:56:01;;;;;;;5.63;3.07;;;8.80;99.90;;;;;;4899439;29;20823;-74
2022/04/10 14:58:29;;;;;;;4.83;3.30;;;8.70;99.90;;;;;;4902248;29;20281;-77
2022/04/10 15:00:57;;;;;;;4.07;2.93;;;8.60;99.90;;;;;;4903432;29;20317;-75
2022/04/10 15:03:28;;;;;;;6.63;3.63;;;8.70;99.90;;;;;;4901173;29;20246;-74
2022/04/10 15:05:56;;;;;;;3.63;3.13;;;8.70;99.90;;;;;;4901867;29;20218;-74
2022/04/10 15:08:24;;;;;;;4.23;2.93;;;8.60;99.90;;;;;;4912010;29;20242;-78
2022/04/10 15:10:52;;;;;;;4.90;2.80;;;8.60;99.90;;;;;;4917388;29;20214;-76
2022/04/10 15:13:26;;;;;;;4.07;2.73;;;8.40;99.90;;;;;;4908676;29;20229;-75
2022/04/10 15:15:54;;;;;;;4.23;3.00;;;8.40;99.90;;;;;;4910189;29;20744;-75
2022/04/10 15:18:23;;;;;;;4.20;2.40;;;8.20;99.90;;;;;;4905268;29;20213;-74
2022/04/10 15:20:53;;;;;;;6.10;3.40;;;7.90;99.90;;;;;;4901382;29;20286;-74
2022/04/10 15:23:23;;;;;;;6.23;3.40;;;7.80;99.90;;;;;;4899842;29;20225;-78
2022/04/10 15:25:51;;;;;;;5.63;4.40;;;7.50;99.90;;;;;;4899227;29;20232;-75
2022/04/10 15:28:20;;;;;;;7.50;5.00;;;6.90;99.90;;;;;;4889434;29;20253;-75
2022/04/10 15:30:48;;;;;;;5.47;3.80;;;6.50;99.90;;;;;;4899133;29;20285;-75
2022/04/10 15:33:17;;;;;;;5.27;3.73;;;6.30;99.90;;;;;;4899372;29;20241;-74
2022/04/10 15:35:47;;;;;;;6.90;3.40;;;6.10;99.90;;;;;;4899424;29;20233;-74
2022/04/10 15:38:16;;;;;;;6.40;3.43;;;6.00;99.90;;;;;;4894977;29;20664;-75
2022/04/10 15:40:44;;;;;;;7.53;3.40;;;5.80;99.90;;;;;;4898981;29;20202;-74
2022/04/10 15:43:12;;;;;;;5.33;3.37;;;5.70;99.90;;;;;;4898545;29;20242;-74
2022/04/10 15:45:40;;;;;;;7.27;3.83;;;5.60;99.90;;;;;;4898692;29;20216;-75
2022/04/10 15:48:11;;;;;;;6.37;3.40;;;5.70;99.90;;;;;;4898404;29;20237;-79
2022/04/10 15:50:39;;;;;;;5.60;3.50;;;5.80;99.90;;;;;;4899048;29;20277;-72
2022/04/10 15:53:08;;;;;;;5.00;3.57;;;5.90;99.90;;;;;;4898168;29;20673;-73
2022/04/10 15:55:38;;;;;;;8.87;3.97;;;5.80;99.90;;;;;;4886177;29;20225;-73
2022/04/10 15:58:07;;;;;;;6.77;4.50;;;5.90;99.90;;;;;;4898604;29;20213;-74
2022/04/10 16:00:35;;;;;;;5.87;4.13;;;6.00;99.90;;;;;;4898237;29;20305;-75
2022/04/10 16:03:04;;;;;;;5.60;3.83;;;6.10;99.90;;;;;;4899344;29;20217;-74
2022/04/10 16:05:32;;;;;;;5.27;3.50;;;6.20;99.90;;;;;;4898547;29;20301;-74
2022/04/10 16:08:02;;;;;;;4.90;3.30;;;6.20;99.90;;;;;;4898545;29;20579;-74
2022/04/10 16:10:30;;;;;;;4.17;3.23;;;6.30;99.90;;;;;;4898594;29;20245;-76
2022/04/10 16:13:00;;;;;;;4.83;3.23;;;6.30;99.90;;;;;;4896120;29;20225;-78
2022/04/10 16:15:28;;;;;;;5.07;3.03;;;6.50;99.90;;;;;;4892912;29;20242;-76
2022/04/10 16:17:57;;;;;;;5.87;3.60;;;6.70;99.90;;;;;;4898436;29;20664;-76
2022/04/10 16:20:25;;;;;;;4.97;3.23;;;6.60;99.90;;;;;;4897765;29;20218;-74
2022/04/10 16:22:53;;;;;;;4.83;3.10;;;6.60;99.90;;;;;;4898683;29;20241;-73
2022/04/10 16:25:21;;;;;;;4.93;2.90;;;6.60;99.90;;;;;;4899985;29;20206;-77
2022/04/10 16:30:36;;;;;;;4.27;2.80;;;6.50;99.90;;;;;;4886209;29;20218;-76
2022/04/10 16:33:08;;;;;;;4.63;3.00;;;6.60;99.90;;;;;;4898142;29;20206;-75
2022/04/10 16:35:40;;;;;;;5.87;3.20;;;6.70;99.90;;;;;;4898370;29;20699;-76
2022/04/10 16:38:10;;;;;;;5.43;3.10;;;6.80;99.90;;;;;;4897346;29;20262;-75
2022/04/10 16:40:41;;;;;;;4.70;3.33;;;6.90;99.90;;;;;;4893028;29;20214;-73
2022/04/10 16:43:09;;;;;;;4.70;3.00;;;6.90;99.90;;;;;;4897189;29;20249;-73
2022/04/10 16:45:39;;;;;;;5.23;3.40;;;6.70;99.90;;;;;;4899566;29;20214;-73
2022/04/10 16:48:08;;;;;;;4.43;3.40;;;6.70;99.90;;;;;;4903907;29;20241;-75
2022/04/10 16:50:36;;;;;;;5.67;3.67;;;6.60;99.90;;;;;;4897120;29;20304;-73
2022/04/10 16:53:10;;;;;;;4.87;3.30;;;6.40;99.90;;;;;;4897171;29;20269;-76
2022/04/10 16:55:38;;;;;;;4.50;3.20;;;6.30;99.90;;;;;;4897215;29;20225;-75
2022/04/10 16:58:06;;;;;;;5.97;4.00;;;6.10;99.90;;;;;;4897703;29;20634;-75
2022/04/10 17:00:36;;;;;;;6.10;4.40;;;5.90;99.90;;;;;;4896801;29;20791;-75
2022/04/10 17:03:06;;;;;;;5.47;3.60;;;5.80;99.90;;;;;;4896930;29;20686;-73
2022/04/10 17:05:35;;;;;;;7.57;4.03;;;5.60;99.90;;;;;;4897129;29;20309;-74
2022/04/10 17:08:06;;;;;;;7.30;4.20;;;5.80;99.90;;;;;;4896895;29;20259;-76
2022/04/10 17:10:34;;;;;;;4.73;3.83;;;5.60;99.90;;;;;;4897216;29;20278;-76
2022/04/10 17:13:03;;;;;;;10.13;5.57;;;5.50;99.90;;;;;;4896929;29;20213;-73
2022/04/10 17:15:32;;;;;;;8.17;5.00;;;5.50;99.90;;;;;;4902731;29;20748;-77
2022/04/10 17:18:00;;;;;;;5.30;4.27;;;5.40;99.90;;;;;;4903445;29;20222;-75
2022/04/10 17:20:30;;;;;;;7.03;4.60;;;5.40;99.90;;;;;;4883584;29;20218;-77
2022/04/10 17:22:58;;;;;;;7.40;4.00;;;5.30;99.90;;;;;;4880225;29;20317;-73